createdAt,value
2022-10-12T00:01:09.064Z,100899.66
2022-10-12T00:03:39.511Z,100891.09
2022-10-12T00:06:09.721Z,100894.88
2022-10-12T00:08:40.770Z,100910.00
2022-10-12T00:11:12.590Z,100901.00
2022-10-12T00:13:40.625Z,100900.16
2022-10-12T00:16:10.960Z,100908.69
2022-10-12T00:18:39.520Z,100906.22
2022-10-12T00:21:09.457Z,100911.31
2022-10-12T00:23:39.669Z,100915.28
2022-10-12T00:26:09.694Z,100904.88
2022-10-12T00:28:37.981Z,100907.94
2022-10-12T00:31:09.213Z,100905.41
2022-10-12T00:33:38.564Z,100906.78
2022-10-12T00:36:15.195Z,100915.50
2022-10-12T00:38:45.093Z,100919.00
2022-10-12T00:41:13.777Z,100909.31
2022-10-12T00:43:44.547Z,100909.03
2022-10-12T00:46:18.598Z,100909.56
2022-10-12T00:48:48.986Z,100897.31
2022-10-12T00:51:19.651Z,100902.94
2022-10-12T00:53:53.856Z,100898.28
2022-10-12T00:56:26.404Z,100898.91
2022-10-12T00:58:55.980Z,100900.38
2022-10-12T01:01:25.242Z,100898.19
2022-10-12T01:03:53.362Z,100906.66
2022-10-12T01:06:21.445Z,100904.31
2022-10-12T01:08:50.616Z,100911.19
2022-10-12T01:11:18.433Z,100910.72
2022-10-12T01:13:46.160Z,100906.69
2022-10-12T01:16:21.335Z,100900.91
2022-10-12T01:18:54.531Z,100904.91
2022-10-12T01:21:23.919Z,100903.97
2022-10-12T01:24:30.558Z,100902.34
2022-10-12T01:27:40.279Z,100895.16
2022-10-12T01:30:19.928Z,100902.41
2022-10-12T01:33:05.718Z,100895.09
2022-10-12T01:35:41.206Z,100900.16
2022-10-12T01:38:19.888Z,100893.06
2022-10-12T01:40:56.602Z,100894.44
2022-10-12T01:43:34.085Z,100897.00
2022-10-12T01:46:09.372Z,100893.00
2022-10-12T01:48:37.323Z,100894.63
2022-10-12T01:51:06.126Z,100901.09
2022-10-12T01:53:42.548Z,100891.31
2022-10-12T01:56:18.102Z,100886.94
2022-10-12T01:58:58.810Z,100885.94
2022-10-12T02:01:34.578Z,100881.34
2022-10-12T02:04:11.218Z,100884.75
2022-10-12T02:06:44.757Z,100879.72
2022-10-12T02:09:19.867Z,100878.75
2022-10-12T02:11:52.105Z,100871.41
2022-10-12T02:14:24.749Z,100875.72
2022-10-12T02:16:57.987Z,100871.16
2022-10-12T02:19:28.892Z,100871.00
2022-10-12T02:22:01.956Z,100869.28
2022-10-12T02:24:32.711Z,100860.19
2022-10-12T02:27:02.042Z,100860.63
2022-10-12T02:29:34.661Z,100856.66
2022-10-12T02:32:10.044Z,100854.72
2022-10-12T02:34:44.722Z,100859.19
2022-10-12T02:37:21.197Z,100861.06
2022-10-12T02:39:54.465Z,100854.19
2022-10-12T02:42:28.175Z,100852.06
2022-10-12T02:44:59.771Z,100851.25
2022-10-12T02:47:32.858Z,100847.56
2022-10-12T02:50:02.132Z,100845.81
2022-10-12T02:52:32.089Z,100845.94
2022-10-12T02:55:00.143Z,100849.53
2022-10-12T02:57:28.396Z,100847.94
2022-10-12T02:59:56.360Z,100848.25
2022-10-12T03:02:24.300Z,100851.59
2022-10-12T03:04:53.723Z,100854.25
2022-10-12T03:07:21.653Z,100850.81
2022-10-12T03:09:49.536Z,100848.19
2022-10-12T03:12:17.351Z,100847.06
2022-10-12T03:14:45.342Z,100842.41
2022-10-12T03:17:13.661Z,100842.66
2022-10-12T03:19:41.654Z,100842.00
2022-10-12T03:22:10.976Z,100838.03
2022-10-12T03:24:39.016Z,100847.63
2022-10-12T03:27:07.033Z,100845.38
2022-10-12T03:29:36.621Z,100853.13
2022-10-12T03:32:04.723Z,100855.41
2022-10-12T03:34:32.888Z,100845.09
2022-10-12T03:37:01.359Z,100847.63
2022-10-12T03:39:30.683Z,100853.66
2022-10-12T03:41:58.858Z,100840.25
2022-10-12T03:44:26.969Z,100851.66
2022-10-12T03:46:55.015Z,100842.81
2022-10-12T03:49:23.142Z,100853.75
2022-10-12T03:51:51.248Z,100839.38
2022-10-12T03:54:19.168Z,100842.50
2022-10-12T03:56:48.775Z,100839.53
2022-10-12T03:59:16.851Z,100837.88
2022-10-12T04:01:44.983Z,100843.31
2022-10-12T04:04:13.035Z,100841.31
2022-10-12T04:06:41.138Z,100845.38
2022-10-12T04:09:09.484Z,100835.47
2022-10-12T04:11:37.622Z,100837.16
2022-10-12T04:14:07.130Z,100841.09
2022-10-12T04:16:35.154Z,100848.78
2022-10-12T04:19:03.643Z,100838.53
2022-10-12T04:21:32.512Z,100847.66
2022-10-12T04:24:00.593Z,100844.47
2022-10-12T04:26:28.636Z,100839.19
2022-10-12T04:28:56.752Z,100839.19
2022-10-12T04:31:26.208Z,100832.38
2022-10-12T04:33:56.992Z,100841.16
2022-10-12T04:36:25.486Z,100842.19
2022-10-12T04:38:58.466Z,100844.66
2022-10-12T04:41:29.428Z,100841.03
2022-10-12T04:43:57.315Z,100850.56
2022-10-12T04:46:26.927Z,100853.34
2022-10-12T04:48:54.914Z,100850.63
2022-10-12T04:51:22.948Z,100855.56
2022-10-12T04:53:51.013Z,100844.38
2022-10-12T04:56:19.886Z,100853.22
2022-10-12T04:58:48.032Z,100853.00
2022-10-12T05:01:16.131Z,100859.28
2022-10-12T05:03:45.564Z,100860.59
2022-10-12T05:06:13.728Z,100858.34
2022-10-12T05:08:41.764Z,100866.00
2022-10-12T05:11:09.741Z,100857.22
2022-10-12T05:13:37.612Z,100859.81
2022-10-12T05:16:05.616Z,100861.59
2022-10-12T05:18:33.477Z,100857.91
2022-10-12T05:21:02.629Z,100847.63
2022-10-12T05:23:30.521Z,100853.03
2022-10-12T05:25:58.355Z,100854.63
2022-10-12T05:28:26.306Z,100855.59
2022-10-12T05:30:54.891Z,100852.66
2022-10-12T05:33:22.959Z,100865.38
2022-10-12T05:35:56.240Z,100857.34
2022-10-12T05:38:25.987Z,100858.34
2022-10-12T05:40:57.845Z,100856.09
2022-10-12T05:43:28.710Z,100849.81
2022-10-12T05:45:57.027Z,100859.31
2022-10-12T05:48:27.835Z,100855.81
2022-10-12T05:50:56.144Z,100860.75
2022-10-12T05:53:25.808Z,100847.84
2022-10-12T05:55:54.973Z,100848.44
2022-10-12T05:58:23.389Z,100855.38
2022-10-12T06:00:51.326Z,100847.44
2022-10-12T06:03:21.952Z,100852.53
2022-10-12T06:05:53.287Z,100849.22
2022-10-12T06:08:22.587Z,100845.16
2022-10-12T06:10:52.745Z,100841.72
2022-10-12T06:13:21.048Z,100851.78
2022-10-12T06:15:49.914Z,100855.00
2022-10-12T06:18:18.927Z,100848.09
2022-10-12T06:20:49.007Z,100855.19
2022-10-12T06:23:17.356Z,100854.66
2022-10-12T06:25:46.952Z,100852.56
2022-10-12T06:28:17.233Z,100849.56
2022-10-12T06:30:45.237Z,100850.91
2022-10-12T06:33:13.374Z,100846.97
2022-10-12T06:35:41.850Z,100852.25
2022-10-12T06:38:09.574Z,100843.41
2022-10-12T06:40:37.516Z,100844.22
2022-10-12T06:43:05.328Z,100846.28
2022-10-12T06:45:34.588Z,100845.34
2022-10-12T06:48:02.653Z,100842.91
2022-10-12T06:50:31.029Z,100845.56
2022-10-12T06:52:59.063Z,100845.44
2022-10-12T06:55:26.891Z,100842.09
2022-10-12T06:57:56.494Z,100845.31
2022-10-12T07:00:24.499Z,100842.38
2022-10-12T07:02:54.125Z,100835.66
2022-10-12T07:05:22.433Z,100846.34
2022-10-12T07:07:50.114Z,100837.97
2022-10-12T07:10:18.064Z,100841.06
2022-10-12T07:12:45.926Z,100837.63
2022-10-12T07:15:13.819Z,100840.53
2022-10-12T07:17:41.676Z,100844.31
2022-10-12T07:20:11.343Z,100852.44
2022-10-12T07:22:39.246Z,100848.28
2022-10-12T07:25:08.954Z,100857.34
2022-10-12T07:27:37.515Z,100858.25
2022-10-12T07:30:06.724Z,100853.38
2022-10-12T07:32:36.005Z,100857.66
2022-10-12T07:35:03.890Z,100858.84
2022-10-12T07:37:33.012Z,100862.34
2022-10-12T07:40:00.941Z,100861.63
2022-10-12T07:42:28.694Z,100860.78
2022-10-12T07:44:56.655Z,100853.13
2022-10-12T07:47:24.421Z,100859.06
2022-10-12T07:49:52.614Z,100865.22
2022-10-12T07:52:20.419Z,100851.75
2022-10-12T07:54:49.941Z,100856.00
2022-10-12T07:57:17.926Z,100863.50
2022-10-12T07:59:46.296Z,100863.44
2022-10-12T08:02:14.320Z,100864.72
2022-10-12T08:04:42.457Z,100867.56
2022-10-12T08:07:10.578Z,100875.84
2022-10-12T08:09:38.816Z,100869.44
2022-10-12T08:12:11.118Z,100871.19
2022-10-12T08:14:39.956Z,100869.91
2022-10-12T08:17:07.805Z,100875.69
2022-10-12T08:19:37.400Z,100879.59
2022-10-12T08:22:06.146Z,100883.59
2022-10-12T08:24:36.126Z,100877.63
2022-10-12T08:27:04.098Z,100878.38
2022-10-12T08:29:33.768Z,100879.44
2022-10-12T08:32:02.315Z,100876.16
2022-10-12T08:34:30.858Z,100877.09
2022-10-12T08:36:59.724Z,100868.44
2022-10-12T08:39:27.638Z,100876.63
2022-10-12T08:42:11.300Z,100868.38
2022-10-12T08:47:41.587Z,100867.66
2022-10-12T08:50:20.766Z,100869.09
2022-10-12T08:52:57.109Z,100869.59
2022-10-12T08:55:35.457Z,100872.22
2022-10-12T08:58:04.303Z,100876.25
2022-10-12T09:00:36.088Z,100868.47
2022-10-12T09:03:17.146Z,100868.25
2022-10-12T09:05:51.496Z,100868.16
2022-10-12T09:08:31.874Z,100869.84
2022-10-12T09:11:15.338Z,100866.19
2022-10-12T09:13:53.559Z,100870.19
2022-10-12T09:16:25.314Z,100868.06
2022-10-12T09:18:59.174Z,100870.91
2022-10-12T09:21:29.818Z,100865.63
2022-10-12T09:23:58.864Z,100867.19
2022-10-12T09:26:34.287Z,100863.63
2022-10-12T09:29:04.072Z,100867.19
2022-10-12T09:31:44.403Z,100867.06
2022-10-12T09:34:18.200Z,100862.88
2022-10-12T09:36:47.519Z,100866.75
2022-10-12T09:39:19.790Z,100857.81
2022-10-12T09:41:50.100Z,100873.47
2022-10-12T09:44:27.003Z,100876.00
2022-10-12T09:46:57.481Z,100873.50
2022-10-12T09:49:41.141Z,100887.63
2022-10-12T09:52:09.537Z,100875.53
2022-10-12T09:54:41.955Z,100879.31
2022-10-12T09:57:10.452Z,100881.47
2022-10-12T09:59:40.961Z,100877.78
2022-10-12T10:02:17.451Z,100878.09
2022-10-12T10:04:50.249Z,100872.66
2022-10-12T10:07:30.919Z,100870.03
2022-10-12T10:10:14.533Z,100873.94
2022-10-12T10:12:49.832Z,100863.88
2022-10-12T10:15:24.534Z,100868.59
2022-10-12T10:17:55.069Z,100869.47
2022-10-12T10:20:31.563Z,100863.09
2022-10-12T10:23:01.204Z,100872.00
2022-10-12T10:25:29.094Z,100873.28
2022-10-12T10:28:13.458Z,100879.84
2022-10-12T10:30:41.759Z,100878.22
2022-10-12T10:33:18.955Z,100872.19
2022-10-12T10:36:01.217Z,100877.88
2022-10-12T10:38:31.730Z,100877.06
2022-10-12T10:41:03.580Z,100868.84
2022-10-12T10:43:32.960Z,100865.50
2022-10-12T10:46:02.986Z,100861.25
2022-10-12T10:48:35.663Z,100866.94
2022-10-12T10:51:07.995Z,100868.84
2022-10-12T10:53:46.097Z,100873.50
2022-10-12T10:56:16.870Z,100862.25
2022-10-12T10:58:46.633Z,100866.91
2022-10-12T11:01:20.532Z,100863.69
2022-10-12T11:03:56.125Z,100850.88
2022-10-12T11:06:33.578Z,100854.59
2022-10-12T11:09:06.503Z,100851.03
2022-10-12T11:11:37.613Z,100840.28
2022-10-12T11:14:13.444Z,100833.50
2022-10-12T11:16:46.509Z,100823.16
2022-10-12T11:19:31.449Z,100835.66
2022-10-12T11:22:06.159Z,100836.50
2022-10-12T11:24:41.598Z,100834.47
2022-10-12T11:27:16.565Z,100842.41
2022-10-12T11:29:46.618Z,100853.13
2022-10-12T11:32:27.600Z,100841.06
2022-10-12T11:34:59.262Z,100816.28
2022-10-12T11:37:34.453Z,100812.44
2022-10-12T11:40:04.124Z,100820.41
2022-10-12T11:42:34.568Z,100821.34
2022-10-12T11:45:07.221Z,100829.78
2022-10-12T11:47:41.680Z,100832.25
2022-10-12T11:50:25.292Z,100833.72
2022-10-12T11:52:57.629Z,100836.34
2022-10-12T11:55:36.359Z,100823.00
2022-10-12T11:58:13.532Z,100826.25
2022-10-12T12:00:54.227Z,100821.09
2022-10-12T12:03:29.921Z,100811.16
2022-10-12T12:06:18.020Z,100800.88
2022-10-12T12:09:07.274Z,100787.00
2022-10-12T12:11:36.145Z,100779.38
2022-10-12T12:14:36.996Z,100777.09
2022-10-12T12:17:16.723Z,100770.34
2022-10-12T12:19:46.473Z,100762.03
2022-10-12T12:22:28.625Z,100756.44
2022-10-12T12:25:09.090Z,100760.84
2022-10-12T12:27:44.857Z,100762.19
2022-10-12T12:30:34.668Z,100761.22
2022-10-12T12:33:05.669Z,100761.72
2022-10-12T12:35:38.842Z,100762.97
2022-10-12T12:38:27.610Z,100760.00
2022-10-12T12:41:08.958Z,100749.81
2022-10-12T12:43:58.770Z,100742.22
2022-10-12T12:46:58.190Z,100750.97
2022-10-12T12:49:29.231Z,100753.47
2022-10-12T12:51:59.770Z,100750.88
2022-10-12T12:54:28.704Z,100746.38
2022-10-12T12:57:12.267Z,100745.00
2022-10-12T13:00:15.617Z,100763.19
2022-10-12T13:03:31.042Z,100765.38
2022-10-12T13:06:42.598Z,100765.50
2022-10-12T13:09:44.897Z,100756.00
2022-10-12T13:12:25.611Z,100743.25
2022-10-12T13:15:18.407Z,100749.88
2022-10-12T13:17:58.018Z,100754.16
2022-10-12T13:20:28.773Z,100742.34
2022-10-12T13:22:58.082Z,100740.13
2022-10-12T13:25:31.310Z,100739.31
2022-10-12T13:28:03.581Z,100733.00
2022-10-12T13:30:37.083Z,100730.66
2022-10-12T13:33:14.325Z,100730.34
2022-10-12T13:35:46.983Z,100727.50
2022-10-12T13:38:22.491Z,100720.56
2022-10-12T13:40:54.377Z,100715.19
2022-10-12T13:43:30.107Z,100717.19
2022-10-12T13:45:58.207Z,100712.22
2022-10-12T13:48:53.740Z,100716.19
2022-10-12T13:51:24.855Z,100718.06
2022-10-12T13:53:53.012Z,100712.78
2022-10-12T13:56:24.209Z,100717.97
2022-10-12T13:58:57.807Z,100720.34
2022-10-12T14:01:27.009Z,100718.22
2022-10-12T14:04:04.487Z,100709.19
2022-10-12T14:06:33.979Z,100707.84
2022-10-12T14:09:10.191Z,100704.75
2022-10-12T14:11:39.227Z,100704.56
2022-10-12T14:14:19.673Z,100696.59
2022-10-12T14:16:47.812Z,100695.84
2022-10-12T14:19:20.386Z,100706.06
2022-10-12T14:21:50.028Z,100716.16
2022-10-12T14:24:20.379Z,100698.94
2022-10-12T14:26:55.747Z,100700.50
2022-10-12T14:29:33.005Z,100693.47
2022-10-12T14:32:02.535Z,100692.78
2022-10-12T14:34:40.929Z,100688.94
2022-10-12T14:37:30.207Z,100689.59
2022-10-12T14:40:02.590Z,100692.03
2022-10-12T14:42:34.946Z,100694.59
2022-10-12T14:45:24.053Z,100692.09
2022-10-12T14:47:52.314Z,100686.75
2022-10-12T14:50:22.026Z,100689.34
2022-10-12T14:52:52.429Z,100684.91
2022-10-12T14:55:22.248Z,100673.69
2022-10-12T14:57:51.065Z,100677.28
2022-10-12T15:00:22.559Z,100671.81
2022-10-12T15:02:51.328Z,100659.44
2022-10-12T15:05:21.613Z,100666.56
2022-10-12T15:07:50.773Z,100663.84
2022-10-12T15:10:21.279Z,100657.56
2022-10-12T15:12:49.932Z,100666.06
2022-10-12T15:15:33.423Z,100666.16
2022-10-12T15:18:01.637Z,100661.06
2022-10-12T15:20:30.934Z,100667.97
2022-10-12T15:22:59.019Z,100663.63
2022-10-12T15:25:33.605Z,100660.16
2022-10-12T15:28:01.456Z,100659.06
2022-10-12T15:30:30.975Z,100653.56
2022-10-12T15:32:58.814Z,100657.75
2022-10-12T15:35:28.284Z,100656.72
2022-10-12T15:37:56.763Z,100659.88
2022-10-12T15:40:25.398Z,100655.53
2022-10-12T15:42:53.431Z,100647.19
2022-10-12T15:45:24.436Z,100662.03
2022-10-12T15:47:54.732Z,100654.69
2022-10-12T15:50:25.228Z,100651.63
2022-10-12T15:52:54.347Z,100654.69
2022-10-12T15:55:23.756Z,100646.78
2022-10-12T15:57:52.599Z,100651.13
2022-10-12T16:00:22.935Z,100641.28
2022-10-12T16:02:50.819Z,100635.00
2022-10-12T16:05:25.946Z,100632.91
2022-10-12T16:07:54.527Z,100638.06
2022-10-12T16:10:25.217Z,100642.97
2022-10-12T16:12:54.866Z,100633.84
2022-10-12T16:15:26.044Z,100636.28
2022-10-12T16:17:54.372Z,100637.91
2022-10-12T16:20:24.177Z,100632.31
2022-10-12T16:22:52.388Z,100628.59
2022-10-12T16:25:24.021Z,100630.50
2022-10-12T16:27:52.664Z,100626.09
2022-10-12T16:30:20.895Z,100631.25
2022-10-12T16:32:49.260Z,100636.97
2022-10-12T16:35:17.247Z,100641.97
2022-10-12T16:37:46.307Z,100633.72
2022-10-12T16:40:15.240Z,100640.59
2022-10-12T16:42:43.237Z,100635.28
2022-10-12T16:45:12.058Z,100636.78
2022-10-12T16:47:42.805Z,100643.31
2022-10-12T16:50:11.461Z,100641.47
2022-10-12T16:52:39.643Z,100639.25
2022-10-12T16:55:10.465Z,100636.91
2022-10-12T16:57:38.918Z,100643.59
2022-10-12T17:00:09.803Z,100644.66
2022-10-12T17:02:38.441Z,100643.81
2022-10-12T17:05:07.087Z,100633.72
2022-10-12T17:07:35.041Z,100633.97
2022-10-12T17:10:03.027Z,100630.16
2022-10-12T17:12:32.385Z,100624.91
2022-10-12T17:15:00.515Z,100634.78
2022-10-12T17:17:28.371Z,100633.25
2022-10-12T17:19:56.865Z,100626.56
2022-10-12T17:22:24.880Z,100640.38
2022-10-12T17:24:53.221Z,100635.13
2022-10-12T17:27:21.592Z,100631.53
2022-10-12T17:29:51.404Z,100636.03
2022-10-12T17:32:20.094Z,100646.69
2022-10-12T17:34:48.019Z,100641.44
2022-10-12T17:37:19.829Z,100643.22
2022-10-12T17:39:48.391Z,100651.31
2022-10-12T17:42:16.663Z,100642.38
2022-10-12T17:44:44.716Z,100649.94
2022-10-12T17:47:14.080Z,100648.16
2022-10-12T17:49:42.292Z,100649.91
2022-10-12T17:52:10.653Z,100644.81
2022-10-12T17:54:40.289Z,100636.25
2022-10-12T17:57:09.345Z,100645.84
2022-10-12T17:59:37.786Z,100650.78
2022-10-12T18:02:09.373Z,100649.81
2022-10-12T18:04:40.171Z,100648.28
2022-10-12T18:07:07.959Z,100648.81
2022-10-12T18:09:35.810Z,100651.09
2022-10-12T18:12:03.704Z,100644.59
2022-10-12T18:14:31.520Z,100644.59
2022-10-12T18:16:59.812Z,100648.97
2022-10-12T18:19:27.631Z,100642.19
2022-10-12T18:21:57.114Z,100644.94
2022-10-12T18:24:27.481Z,100648.06
2022-10-12T18:26:55.555Z,100650.38
2022-10-12T18:29:24.116Z,100647.25
2022-10-12T18:31:53.217Z,100642.97
2022-10-12T18:34:20.941Z,100649.75
2022-10-12T18:36:49.775Z,100646.53
2022-10-12T18:39:18.880Z,100649.22
2022-10-12T18:41:51.510Z,100643.38
2022-10-12T18:44:21.032Z,100631.91
2022-10-12T18:46:49.729Z,100636.28
2022-10-12T18:49:17.682Z,100633.06
2022-10-12T18:51:51.386Z,100634.09
2022-10-12T18:54:20.745Z,100631.69
2022-10-12T18:56:48.573Z,100624.09
2022-10-12T18:59:20.448Z,100631.25
2022-10-12T19:01:48.399Z,100629.38
2022-10-12T19:04:19.449Z,100631.78
2022-10-12T19:06:47.275Z,100637.13
2022-10-12T19:09:15.294Z,100634.59
2022-10-12T19:11:44.587Z,100630.34
2022-10-12T19:14:14.667Z,100638.88
2022-10-12T19:16:43.205Z,100635.94
2022-10-12T19:19:19.644Z,100632.03
2022-10-12T19:21:49.032Z,100623.19
2022-10-12T19:24:17.599Z,100636.16
2022-10-12T19:26:48.294Z,100641.38
2022-10-12T19:29:16.513Z,100632.59
2022-10-12T19:31:46.494Z,100635.78
2022-10-12T19:34:16.854Z,100633.06
2022-10-12T19:36:46.173Z,100629.91
2022-10-12T19:39:16.155Z,100634.56
2022-10-12T19:41:45.122Z,100642.47
2022-10-12T19:44:14.934Z,100640.72
2022-10-12T19:46:47.463Z,100637.06
2022-10-12T19:49:18.144Z,100648.59
2022-10-12T19:51:46.454Z,100653.78
2022-10-12T19:54:16.354Z,100644.47
2022-10-12T19:56:44.455Z,100638.16
2022-10-12T19:59:13.768Z,100644.56
2022-10-12T20:01:41.834Z,100635.91
2022-10-12T20:04:11.903Z,100635.97
2022-10-12T20:06:40.600Z,100636.94
2022-10-12T20:09:10.561Z,100638.88
2022-10-12T20:11:38.847Z,100645.59
2022-10-12T20:14:08.056Z,100648.06
2022-10-12T20:16:37.759Z,100645.34
2022-10-12T20:19:08.892Z,100649.97
2022-10-12T20:21:37.409Z,100647.31
2022-10-12T20:24:08.849Z,100656.53
2022-10-12T20:26:37.349Z,100662.00
2022-10-12T20:29:05.248Z,100657.78
2022-10-12T20:31:33.629Z,100655.38
2022-10-12T20:34:02.798Z,100643.72
2022-10-12T20:36:31.931Z,100643.72
2022-10-12T20:39:00.692Z,100649.75
2022-10-12T20:41:29.582Z,100632.00
2022-10-12T20:43:58.241Z,100641.28
2022-10-12T20:46:26.779Z,100639.25
2022-10-12T20:48:59.226Z,100639.25
2022-10-12T20:51:31.302Z,100635.34
2022-10-12T20:54:00.867Z,100635.53
2022-10-12T20:56:29.019Z,100638.44
2022-10-12T20:58:57.051Z,100640.75
2022-10-12T21:01:26.585Z,100632.47
2022-10-12T21:03:54.994Z,100634.16
2022-10-12T21:06:23.612Z,100635.53
2022-10-12T21:08:55.128Z,100641.47
2022-10-12T21:11:25.837Z,100647.41
2022-10-12T21:13:54.320Z,100654.38
2022-10-12T21:16:22.500Z,100655.31
2022-10-12T21:18:55.092Z,100657.91
2022-10-12T21:21:24.043Z,100655.91
2022-10-12T21:23:55.879Z,100649.44
2022-10-12T21:26:25.608Z,100641.56
2022-10-12T21:28:53.669Z,100641.34
2022-10-12T21:31:22.659Z,100645.41
2022-10-12T21:33:50.601Z,100643.38
2022-10-12T21:36:21.508Z,100656.66
2022-10-12T21:38:50.601Z,100665.19
2022-10-12T21:41:22.037Z,100665.00
2022-10-12T21:43:52.052Z,100665.28
2022-10-12T21:46:24.138Z,100663.06
2022-10-12T21:48:53.760Z,100657.91
2022-10-12T21:51:24.082Z,100649.09
2022-10-12T21:53:54.334Z,100646.66
2022-10-12T21:56:27.826Z,100642.66
2022-10-12T21:58:58.000Z,100640.63
2022-10-12T22:01:28.944Z,100648.78
2022-10-12T22:04:00.361Z,100644.53
2022-10-12T22:06:32.009Z,100639.75
2022-10-12T22:09:05.859Z,100649.91
2022-10-12T22:11:40.305Z,100646.56
2022-10-12T22:14:16.381Z,100638.03
2022-10-12T22:16:45.472Z,100635.28
2022-10-12T22:19:18.693Z,100637.97
2022-10-12T22:21:48.232Z,100634.72
2022-10-12T22:24:16.871Z,100623.97
2022-10-12T22:26:47.858Z,100624.06
2022-10-12T22:29:16.801Z,100623.75
2022-10-12T22:31:46.531Z,100628.34
2022-10-12T22:34:19.806Z,100617.91
2022-10-12T22:36:48.587Z,100625.94
2022-10-12T22:39:26.330Z,100638.41
2022-10-12T22:41:58.298Z,100635.63
2022-10-12T22:44:26.072Z,100628.53
2022-10-12T22:46:55.069Z,100630.63
2022-10-12T22:49:22.835Z,100631.22
2022-10-12T22:51:50.840Z,100630.06
2022-10-12T22:54:18.559Z,100628.19
2022-10-12T22:56:46.471Z,100625.38
2022-10-12T22:59:16.843Z,100628.13
2022-10-12T23:01:45.701Z,100628.88
2022-10-12T23:04:13.551Z,100620.00
2022-10-12T23:06:41.358Z,100624.47
2022-10-12T23:09:09.444Z,100625.44
2022-10-12T23:11:37.776Z,100628.19
2022-10-12T23:14:05.655Z,100630.47
2022-10-12T23:16:35.413Z,100634.91
2022-10-12T23:19:06.142Z,100641.19
2022-10-12T23:21:35.786Z,100640.06
2022-10-12T23:24:05.886Z,100627.94
2022-10-12T23:26:35.056Z,100630.97
2022-10-12T23:29:02.977Z,100626.31
2022-10-12T23:31:31.782Z,100627.00
2022-10-12T23:34:04.584Z,100629.59
2022-10-12T23:36:35.503Z,100621.94
2022-10-12T23:39:05.008Z,100625.91
2022-10-12T23:41:32.883Z,100613.81
2022-10-12T23:44:00.739Z,100617.31
2022-10-12T23:46:28.601Z,100610.13
2022-10-12T23:48:58.533Z,100619.34
2022-10-12T23:51:27.906Z,100620.41
2022-10-12T23:53:55.832Z,100622.84
2022-10-12T23:56:23.729Z,100624.78
2022-10-12T23:58:53.817Z,100625.53
